Time;durP1;ratioP1;P1;durP2;ratioP2;P2;SDS_P1;SDS_P2;PMS_P1;PMS_P2;Temp;Humidity;BMP_temperature;BMP_pressure;BME280_temperature;BME280_humidity;BME280_pressure;Samples;Min_cycle;Max_cycle;Signal;HPM_P1;HPM_P2
2024/01/27 00:01:05;;;;;;;4.30;1.57;;;2.40;65.60;;;;;;5070586;28;46454;-79
2024/01/27 00:03:30;;;;;;;5.10;1.40;;;2.40;65.70;;;;;;5056718;27;45896;-77
2024/01/27 00:05:56;;;;;;;4.93;1.33;;;2.30;65.60;;;;;;5066644;27;45951;-79
2024/01/27 00:08:22;;;;;;;5.30;1.70;;;2.30;65.60;;;;;;5066411;28;47247;-77
2024/01/27 00:10:47;;;;;;;8.93;2.27;;;2.20;65.50;;;;;;5066060;27;46241;-80
2024/01/27 00:13:13;;;;;;;4.83;1.80;;;2.20;65.40;;;;;;5068583;28;46364;-77
2024/01/27 00:15:38;;;;;;;5.17;1.80;;;2.20;65.30;;;;;;5049178;28;47585;-78
2024/01/27 00:18:04;;;;;;;8.60;2.70;;;2.20;65.30;;;;;;5065010;27;46451;-79
2024/01/27 00:20:30;;;;;;;6.87;3.17;;;2.20;65.30;;;;;;5056233;28;46570;-81
2024/01/27 00:22:55;;;;;;;12.87;3.93;;;2.10;65.20;;;;;;5064747;27;46952;-80
2024/01/27 00:25:21;;;;;;;11.13;4.30;;;2.10;65.20;;;;;;5063853;27;46553;-80
2024/01/27 00:27:46;;;;;;;17.87;3.93;;;2.10;65.20;;;;;;5062371;28;46625;-80
2024/01/27 00:30:12;;;;;;;12.20;4.90;;;2.10;65.20;;;;;;5047631;28;46694;-78
2024/01/27 00:32:38;;;;;;;10.10;4.72;;;2.10;65.30;;;;;;5064379;28;46487;-79
2024/01/27 00:35:04;;;;;;;11.40;4.57;;;2.10;65.30;;;;;;5064577;27;46446;-77
2024/01/27 00:37:29;;;;;;;11.50;4.83;;;2.00;65.20;;;;;;5064642;28;46876;-77
2024/01/27 00:39:55;;;;;;;8.77;3.90;;;1.90;65.40;;;;;;5069709;28;46104;-77
2024/01/27 00:42:23;;;;;;;9.37;4.80;;;1.90;65.60;;;;;;5066435;28;46522;-76
2024/01/27 00:44:50;;;;;;;10.60;4.70;;;1.80;65.80;;;;;;5066799;28;46516;-79
2024/01/27 00:47:15;;;;;;;8.18;3.78;;;1.80;65.80;;;;;;5067365;27;46756;-80
2024/01/27 00:49:41;;;;;;;8.63;3.67;;;1.80;65.80;;;;;;5068782;28;46670;-77
2024/01/27 00:52:06;;;;;;;8.60;3.83;;;1.80;65.70;;;;;;5056737;28;46938;-78
2024/01/27 00:54:32;;;;;;;8.83;3.47;;;1.80;65.60;;;;;;5067430;27;45895;-78
2024/01/27 00:56:57;;;;;;;8.37;3.33;;;1.80;65.60;;;;;;5068199;28;47187;-78
2024/01/27 00:59:23;;;;;;;11.50;4.30;;;1.80;65.40;;;;;;5065622;27;46493;-78
2024/01/27 01:01:49;;;;;;;9.40;4.47;;;1.80;65.40;;;;;;5066127;27;46243;-79
2024/01/27 01:04:15;;;;;;;9.15;4.40;;;1.70;65.20;;;;;;5066123;28;46490;-76
2024/01/27 01:06:40;;;;;;;9.20;4.77;;;1.80;65.20;;;;;;5056393;28;48262;-78
2024/01/27 01:09:06;;;;;;;7.30;3.37;;;1.80;65.20;;;;;;5067367;28;46769;-78
2024/01/27 01:11:32;;;;;;;9.20;3.80;;;1.80;65.10;;;;;;5065665;28;46620;-77
2024/01/27 01:13:57;;;;;;;6.97;3.20;;;1.80;65.20;;;;;;5066577;27;46420;-79
2024/01/27 01:16:23;;;;;;;6.90;3.63;;;1.80;65.20;;;;;;5066106;28;47281;-76
2024/01/27 01:18:48;;;;;;;6.80;4.03;;;1.70;65.30;;;;;;5064575;28;46583;-77
2024/01/27 01:21:14;;;;;;;9.93;3.50;;;1.60;65.50;;;;;;5068701;28;46489;-77
2024/01/27 01:23:39;;;;;;;9.97;2.73;;;1.50;65.80;;;;;;5067251;27;46457;-79
2024/01/27 01:26:05;;;;;;;5.50;3.30;;;1.50;65.90;;;;;;5064513;28;46837;-79
2024/01/27 01:28:32;;;;;;;6.87;3.37;;;1.50;66.00;;;;;;5064707;28;46528;-80
2024/01/27 01:30:57;;;;;;;9.80;3.70;;;1.40;66.10;;;;;;5066494;28;46563;-78
2024/01/27 01:33:23;;;;;;;8.73;3.50;;;1.40;66.20;;;;;;5045219;28;46704;-79
2024/01/27 01:35:48;;;;;;;6.03;3.10;;;1.40;66.30;;;;;;5064631;28;46509;-78
2024/01/27 01:38:14;;;;;;;13.30;3.13;;;1.30;66.40;;;;;;5048793;28;46974;-79
2024/01/27 01:40:39;;;;;;;4.50;2.73;;;1.30;66.40;;;;;;5072647;27;46681;-78
2024/01/27 01:43:11;;;;;;;6.93;3.23;;;1.20;66.20;;;;;;5076916;28;47675;-79
2024/01/27 01:45:36;;;;;;;6.45;2.65;;;1.20;66.30;;;;;;5071670;27;47291;-81
2024/01/27 01:48:02;;;;;;;8.10;3.20;;;1.10;66.30;;;;;;5066693;27;46721;-78
2024/01/27 01:50:28;;;;;;;5.40;2.30;;;1.10;66.40;;;;;;5069869;28;46494;-82
2024/01/27 01:52:54;;;;;;;3.80;2.07;;;1.00;66.50;;;;;;5068255;28;46502;-82
2024/01/27 01:55:20;;;;;;;6.30;1.98;;;1.00;66.40;;;;;;5067930;27;48431;-82
2024/01/27 01:57:46;;;;;;;5.33;2.17;;;1.00;66.20;;;;;;5070694;27;46637;-82
2024/01/27 02:00:12;;;;;;;12.18;2.00;;;1.00;66.10;;;;;;5052667;28;45861;-79
2024/01/27 02:02:38;;;;;;;4.88;1.90;;;1.00;66.10;;;;;;5066437;27;46530;-79
2024/01/27 02:05:04;;;;;;;3.40;1.90;;;1.00;66.10;;;;;;5068546;28;46439;-80
2024/01/27 02:07:30;;;;;;;4.63;2.17;;;1.00;65.90;;;;;;5070353;28;47184;-77
2024/01/27 02:09:55;;;;;;;4.50;2.20;;;1.10;65.90;;;;;;5071689;28;46458;-80
2024/01/27 02:12:21;;;;;;;5.30;2.33;;;1.10;65.90;;;;;;5058454;28;46593;-79
2024/01/27 02:14:46;;;;;;;8.60;2.13;;;1.10;65.90;;;;;;5052009;28;49365;-78
2024/01/27 02:17:12;;;;;;;10.67;2.60;;;1.00;65.90;;;;;;5068318;28;46503;-79
2024/01/27 02:19:37;;;;;;;4.83;2.07;;;1.00;65.90;;;;;;5072555;28;46542;-78
2024/01/27 02:22:03;;;;;;;3.57;1.93;;;1.00;66.00;;;;;;5061229;28;46395;-78
2024/01/27 02:24:29;;;;;;;4.40;1.97;;;1.00;66.00;;;;;;5070333;28;47624;-77
2024/01/27 02:26:54;;;;;;;6.30;2.10;;;1.00;65.90;;;;;;5060132;28;46440;-78
2024/01/27 02:29:20;;;;;;;5.17;2.07;;;1.00;66.00;;;;;;5072147;28;46455;-79
2024/01/27 02:31:45;;;;;;;2.90;1.60;;;1.00;66.10;;;;;;5070131;28;46596;-78
2024/01/27 02:34:11;;;;;;;9.30;2.70;;;0.90;67.10;;;;;;5052304;28;48289;-79
2024/01/27 02:36:36;;;;;;;6.93;2.20;;;1.00;66.00;;;;;;5068581;27;47018;-78
2024/01/27 02:39:02;;;;;;;5.63;2.23;;;0.90;65.90;;;;;;5070660;28;46456;-78
2024/01/27 02:41:27;;;;;;;5.80;2.33;;;1.00;66.00;;;;;;5068203;27;47884;-77
2024/01/27 02:43:53;;;;;;;11.90;2.10;;;1.00;65.80;;;;;;5068061;28;46932;-78
2024/01/27 02:46:18;;;;;;;9.80;1.90;;;1.00;66.00;;;;;;5068705;28;46519;-79
2024/01/27 02:48:44;;;;;;;5.20;1.97;;;0.90;65.90;;;;;;5069464;28;46486;-78
2024/01/27 02:51:10;;;;;;;8.63;2.00;;;0.90;65.90;;;;;;5070481;27;46655;-78
2024/01/27 02:53:36;;;;;;;7.90;2.00;;;0.90;66.00;;;;;;5070256;27;47132;-78
2024/01/27 02:56:02;;;;;;;4.03;1.90;;;0.90;65.90;;;;;;5069820;28;46461;-78
2024/01/27 02:58:27;;;;;;;8.15;1.70;;;0.90;65.90;;;;;;5069976;28;46505;-78
2024/01/27 03:00:53;;;;;;;7.47;1.97;;;0.90;65.90;;;;;;5070346;28;46825;-79
2024/01/27 03:03:19;;;;;;;7.30;2.20;;;0.90;65.90;;;;;;5068989;28;46570;-78
2024/01/27 03:05:44;;;;;;;4.80;1.70;;;0.90;65.90;;;;;;5059073;28;46928;-78
2024/01/27 03:08:10;;;;;;;3.37;1.80;;;0.90;65.90;;;;;;5069550;28;46443;-77
2024/01/27 03:10:35;;;;;;;3.40;1.80;;;0.90;65.90;;;;;;5071145;28;46704;-77
2024/01/27 03:13:01;;;;;;;3.60;2.03;;;0.90;66.00;;;;;;5072267;28;46381;-77
2024/01/27 03:15:26;;;;;;;3.60;2.33;;;0.80;66.00;;;;;;5070282;27;46490;-79
2024/01/27 03:17:52;;;;;;;6.73;2.00;;;0.80;66.10;;;;;;5070280;28;46922;-80
2024/01/27 03:20:17;;;;;;;7.77;2.57;;;0.80;66.10;;;;;;5062575;28;46602;-79
2024/01/27 03:22:43;;;;;;;7.27;2.00;;;0.80;66.10;;;;;;5069610;28;46343;-78
2024/01/27 03:25:10;;;;;;;3.60;1.47;;;0.80;66.20;;;;;;5072042;27;46435;-78
2024/01/27 03:27:36;;;;;;;9.15;2.25;;;0.80;66.30;;;;;;5051914;28;46437;-78
2024/01/27 03:30:03;;;;;;;9.40;2.03;;;0.70;66.10;;;;;;5070556;28;46567;-78
2024/01/27 03:32:31;;;;;;;7.32;2.30;;;0.70;66.20;;;;;;5067539;27;48426;-78
2024/01/27 03:34:58;;;;;;;4.00;1.98;;;0.60;66.30;;;;;;5061354;28;46539;-77
2024/01/27 03:37:23;;;;;;;12.65;2.17;;;0.60;66.40;;;;;;5074102;28;46404;-80
2024/01/27 03:39:49;;;;;;;4.60;1.90;;;0.60;66.40;;;;;;5073239;28;46564;-77
2024/01/27 03:42:14;;;;;;;4.60;2.20;;;0.60;66.40;;;;;;5082949;27;46527;-80
2024/01/27 03:44:40;;;;;;;10.47;2.20;;;0.60;66.30;;;;;;5076609;28;46423;-78
2024/01/27 03:47:05;;;;;;;5.53;2.63;;;0.60;66.40;;;;;;5072370;28;46469;-79
2024/01/27 03:49:31;;;;;;;5.93;2.40;;;0.50;66.40;;;;;;5073457;27;46408;-80
2024/01/27 03:51:56;;;;;;;7.43;2.50;;;0.50;66.50;;;;;;5070234;28;49072;-81
2024/01/27 03:54:22;;;;;;;9.77;2.70;;;0.50;66.50;;;;;;5070186;28;45926;-78
2024/01/27 03:56:47;;;;;;;7.57;2.97;;;0.50;66.40;;;;;;5069375;28;46564;-79
2024/01/27 03:59:13;;;;;;;5.80;2.43;;;0.50;66.40;;;;;;5067576;28;46499;-78
2024/01/27 04:01:38;;;;;;;7.60;2.73;;;0.50;66.40;;;;;;5050476;28;49114;-79
2024/01/27 04:04:04;;;;;;;4.57;2.53;;;0.50;66.40;;;;;;5068956;27;46816;-79
2024/01/27 04:06:36;;;;;;;7.80;3.30;;;0.50;66.40;;;;;;5067666;28;46445;-79
2024/01/27 04:09:02;;;;;;;7.03;2.90;;;0.50;66.40;;;;;;5052144;28;46471;-79
2024/01/27 04:11:28;;;;;;;10.85;3.75;;;0.50;66.30;;;;;;5059400;28;48185;-76
2024/01/27 04:13:54;;;;;;;8.53;3.50;;;0.50;66.50;;;;;;5069332;28;46768;-78
2024/01/27 04:16:19;;;;;;;5.90;2.87;;;0.50;66.50;;;;;;5051766;28;46427;-76
2024/01/27 04:18:45;;;;;;;6.80;2.90;;;0.50;66.60;;;;;;5057220;28;46591;-77
2024/01/27 04:21:10;;;;;;;10.60;3.17;;;0.40;66.60;;;;;;5068669;27;47251;-77
2024/01/27 04:23:36;;;;;;;9.40;2.67;;;0.40;66.40;;;;;;5067658;28;47410;-77
2024/01/27 04:26:02;;;;;;;9.83;3.57;;;0.50;66.60;;;;;;5066998;27;46410;-76
2024/01/27 04:28:30;;;;;;;7.70;2.90;;;0.40;66.40;;;;;;5070720;28;46214;-78
2024/01/27 04:30:55;;;;;;;7.35;2.83;;;0.40;66.40;;;;;;5068431;28;46713;-78
2024/01/27 04:33:22;;;;;;;6.30;3.00;;;0.40;66.40;;;;;;5068293;28;46534;-78
2024/01/27 04:35:48;;;;;;;11.93;3.38;;;0.40;66.50;;;;;;5068482;28;46430;-76
2024/01/27 04:38:13;;;;;;;7.40;3.77;;;0.40;66.60;;;;;;5069307;28;45862;-80
2024/01/27 04:40:39;;;;;;;5.90;2.97;;;0.40;66.50;;;;;;5069396;28;46787;-77
2024/01/27 04:43:04;;;;;;;8.80;3.43;;;0.40;66.50;;;;;;5050831;28;46534;-79
2024/01/27 04:45:30;;;;;;;6.40;2.83;;;0.30;66.40;;;;;;5066990;28;46786;-79
2024/01/27 04:47:55;;;;;;;10.83;3.40;;;0.30;66.50;;;;;;5067300;27;46438;-78
2024/01/27 04:50:21;;;;;;;10.20;3.30;;;0.30;66.50;;;;;;5051870;28;48063;-78
2024/01/27 04:52:46;;;;;;;6.90;2.80;;;0.30;66.50;;;;;;5065389;28;47456;-81
2024/01/27 04:55:12;;;;;;;7.77;3.27;;;0.30;66.60;;;;;;5065517;28;46425;-77
2024/01/27 04:57:38;;;;;;;5.43;3.17;;;0.30;66.60;;;;;;5069253;28;46399;-77
2024/01/27 05:00:07;;;;;;;5.33;2.80;;;0.30;66.60;;;;;;5064809;28;47499;-76
2024/01/27 05:02:33;;;;;;;15.98;3.45;;;0.30;66.80;;;;;;5064905;28;46517;-78
2024/01/27 05:04:59;;;;;;;8.55;3.72;;;0.30;66.80;;;;;;5065023;28;46446;-77
2024/01/27 05:07:24;;;;;;;19.50;3.53;;;0.30;66.70;;;;;;5053628;28;46444;-79
2024/01/27 05:09:50;;;;;;;7.33;3.77;;;0.30;66.80;;;;;;5067145;28;47085;-77
2024/01/27 05:12:16;;;;;;;4.97;2.93;;;0.30;66.80;;;;;;5067943;28;46548;-79
2024/01/27 05:14:45;;;;;;;14.43;3.67;;;0.30;66.80;;;;;;5064645;27;46791;-78
2024/01/27 05:17:11;;;;;;;8.98;3.58;;;0.30;66.80;;;;;;5049782;28;47040;-78
2024/01/27 05:19:36;;;;;;;6.20;3.87;;;0.30;66.70;;;;;;5049575;28;47985;-79
2024/01/27 05:22:02;;;;;;;11.33;3.20;;;0.30;66.80;;;;;;5063474;27;46613;-78
2024/01/27 05:24:27;;;;;;;11.97;3.90;;;0.30;66.90;;;;;;5066989;28;46486;-78
2024/01/27 05:26:53;;;;;;;9.87;3.83;;;0.30;66.90;;;;;;5058972;28;46581;-79
2024/01/27 05:29:18;;;;;;;7.20;2.90;;;0.30;66.90;;;;;;5069601;28;46910;-78
2024/01/27 05:31:44;;;;;;;18.43;4.67;;;0.30;67.00;;;;;;5057175;28;46853;-79
2024/01/27 05:34:10;;;;;;;11.33;3.30;;;0.20;66.90;;;;;;5067846;28;46435;-79
2024/01/27 05:36:36;;;;;;;7.35;4.13;;;0.20;66.90;;;;;;5057786;28;46441;-79
2024/01/27 05:39:04;;;;;;;9.23;4.10;;;0.30;67.10;;;;;;5070829;27;46282;-80
2024/01/27 05:41:30;;;;;;;12.73;3.67;;;0.20;67.00;;;;;;5072193;27;46704;-79
2024/01/27 05:43:58;;;;;;;7.97;4.67;;;0.20;67.00;;;;;;5077081;27;46555;-79
2024/01/27 05:46:25;;;;;;;7.65;3.60;;;0.20;67.00;;;;;;5078637;28;46355;-81
2024/01/27 05:48:53;;;;;;;6.25;3.13;;;0.20;67.00;;;;;;5073174;28;46498;-79
2024/01/27 05:51:19;;;;;;;10.02;4.28;;;0.10;67.00;;;;;;5053121;28;46504;-78
2024/01/27 05:53:45;;;;;;;9.93;4.10;;;0.10;67.10;;;;;;5069970;28;46519;-77
2024/01/27 05:56:11;;;;;;;11.20;3.63;;;0.10;67.00;;;;;;5070807;28;46794;-78
2024/01/27 05:58:37;;;;;;;11.30;3.67;;;0.10;67.00;;;;;;5069734;28;46401;-76
2024/01/27 06:01:02;;;;;;;7.57;3.60;;;0.10;66.90;;;;;;5068585;28;46721;-78
2024/01/27 06:03:28;;;;;;;9.87;4.07;;;0.10;66.90;;;;;;5070410;27;46816;-78
2024/01/27 06:05:54;;;;;;;19.97;4.13;;;0.00;66.90;;;;;;5068007;28;46761;-78
2024/01/27 06:08:19;;;;;;;11.60;4.47;;;0.00;66.80;;;;;;5071241;28;47109;-78
2024/01/27 06:10:46;;;;;;;9.60;4.87;;;0.00;66.80;;;;;;5068457;28;46431;-76
2024/01/27 06:13:11;;;;;;;7.68;3.72;;;0.00;66.80;;;;;;5068880;27;46620;-77
2024/01/27 06:15:37;;;;;;;8.07;3.73;;;0.00;66.80;;;;;;5066033;27;46452;-77
2024/01/27 06:18:02;;;;;;;10.87;3.70;;;0.00;66.80;;;;;;5068689;28;46499;-79
2024/01/27 06:20:28;;;;;;;7.33;3.63;;;-0.10;67.80;;;;;;5068193;28;46535;-79
2024/01/27 06:22:53;;;;;;;11.17;4.37;;;-0.10;66.70;;;;;;5066321;27;46413;-77
2024/01/27 06:25:20;;;;;;;8.50;4.00;;;0.00;66.80;;;;;;5070136;28;46410;-78
2024/01/27 06:27:46;;;;;;;9.23;4.22;;;0.00;66.80;;;;;;5052744;28;48713;-77
2024/01/27 06:30:12;;;;;;;18.47;5.70;;;0.00;66.90;;;;;;5070689;28;46510;-79
2024/01/27 06:32:38;;;;;;;20.95;4.65;;;0.00;66.70;;;;;;5070045;28;46493;-79
2024/01/27 06:35:04;;;;;;;14.90;4.50;;;-0.10;66.50;;;;;;5049827;28;46547;-76
2024/01/27 06:37:29;;;;;;;13.55;4.80;;;0.00;66.70;;;;;;5067971;28;46424;-79
2024/01/27 06:39:55;;;;;;;13.70;6.77;;;-0.20;66.40;;;;;;5070530;27;46829;-78
2024/01/27 06:42:21;;;;;;;15.57;5.63;;;0.00;66.50;;;;;;5051593;28;46825;-78
2024/01/27 06:44:46;;;;;;;17.63;6.67;;;0.00;66.60;;;;;;5066654;28;46768;-78
2024/01/27 06:47:12;;;;;;;17.37;6.83;;;0.00;66.60;;;;;;5067753;27;46526;-78
2024/01/27 06:49:37;;;;;;;15.10;7.50;;;0.00;66.70;;;;;;5068227;27;46856;-78
2024/01/27 06:52:03;;;;;;;19.53;7.10;;;0.00;66.60;;;;;;5052697;28;47346;-80
2024/01/27 06:54:29;;;;;;;13.60;6.53;;;0.00;66.60;;;;;;5071024;28;46609;-79
2024/01/27 06:56:54;;;;;;;16.40;6.63;;;0.10;66.60;;;;;;5068210;28;46507;-79
2024/01/27 06:59:20;;;;;;;20.10;6.80;;;0.00;66.50;;;;;;5067922;28;46543;-79
2024/01/27 07:01:48;;;;;;;11.33;5.43;;;0.00;67.70;;;;;;5067626;28;45851;-78
2024/01/27 07:04:15;;;;;;;21.05;6.40;;;0.00;66.70;;;;;;5069657;28;46487;-77
2024/01/27 07:06:40;;;;;;;14.40;6.60;;;0.00;66.60;;;;;;5069280;28;46486;-79
2024/01/27 07:09:09;;;;;;;14.53;6.23;;;0.00;66.70;;;;;;5052668;28;46549;-80
2024/01/27 07:11:35;;;;;;;15.85;5.72;;;0.00;66.60;;;;;;5060062;28;46896;-80
2024/01/27 07:14:02;;;;;;;15.93;6.63;;;0.00;66.60;;;;;;5068818;28;46653;-79
2024/01/27 07:16:28;;;;;;;16.27;8.27;;;0.00;66.50;;;;;;5067578;28;46466;-79
2024/01/27 07:18:53;;;;;;;15.27;7.20;;;0.10;66.60;;;;;;5068447;27;46566;-81
2024/01/27 07:21:19;;;;;;;22.00;7.83;;;0.10;66.50;;;;;;5056926;28;45929;-78
2024/01/27 07:23:44;;;;;;;21.30;7.43;;;0.10;66.50;;;;;;5070217;28;46696;-80
2024/01/27 07:26:11;;;;;;;22.67;7.20;;;0.20;66.40;;;;;;5069604;28;47300;-79
2024/01/27 07:28:37;;;;;;;16.08;7.95;;;0.20;66.50;;;;;;5051846;28;47003;-80
2024/01/27 07:31:03;;;;;;;14.05;6.32;;;0.20;66.50;;;;;;5067235;28;46495;-79
2024/01/27 07:33:29;;;;;;;14.73;5.60;;;0.20;66.50;;;;;;5067990;27;46459;-80
2024/01/27 07:35:54;;;;;;;17.63;6.80;;;0.30;66.50;;;;;;5059129;28;48002;-80
2024/01/27 07:38:20;;;;;;;15.10;5.67;;;0.30;66.60;;;;;;5051385;28;46427;-80
2024/01/27 07:40:46;;;;;;;11.27;6.63;;;0.30;66.60;;;;;;5064226;28;46940;-81
2024/01/27 07:43:11;;;;;;;12.13;6.13;;;0.30;66.60;;;;;;5068702;28;47575;-81
2024/01/27 07:45:37;;;;;;;17.30;6.47;;;0.30;66.60;;;;;;5067411;27;47038;-79
2024/01/27 07:48:03;;;;;;;17.50;6.87;;;0.30;66.50;;;;;;5055985;28;46981;-78
2024/01/27 07:50:28;;;;;;;16.30;7.03;;;0.40;66.50;;;;;;5067777;28;46460;-79
2024/01/27 07:52:54;;;;;;;17.33;6.80;;;0.50;66.70;;;;;;5068003;28;46483;-80
2024/01/27 07:55:19;;;;;;;15.30;6.37;;;0.50;66.60;;;;;;5055981;28;49185;-79
2024/01/27 07:57:45;;;;;;;11.63;6.10;;;0.50;66.50;;;;;;5067431;27;46474;-79
2024/01/27 08:00:11;;;;;;;11.60;6.43;;;0.60;66.40;;;;;;5055261;28;46945;-80
2024/01/27 08:02:36;;;;;;;13.20;7.70;;;0.70;66.20;;;;;;5066256;28;46960;-79
2024/01/27 08:05:03;;;;;;;18.93;7.77;;;0.80;66.20;;;;;;5066681;27;50207;-79
2024/01/27 08:07:29;;;;;;;21.75;9.63;;;0.90;66.10;;;;;;5052519;28;46490;-77
2024/01/27 08:09:56;;;;;;;20.15;7.72;;;0.90;65.90;;;;;;5068968;28;46422;-79
2024/01/27 08:12:22;;;;;;;15.82;7.85;;;1.00;65.90;;;;;;5065527;27;46899;-79
2024/01/27 08:14:48;;;;;;;14.87;8.23;;;1.00;65.90;;;;;;5068911;28;47101;-79
2024/01/27 08:17:14;;;;;;;22.73;9.07;;;1.10;67.30;;;;;;5067725;28;46784;-80
2024/01/27 08:19:39;;;;;;;16.40;9.57;;;1.20;66.10;;;;;;5066469;27;46746;-78
2024/01/27 08:22:05;;;;;;;15.50;8.77;;;1.30;66.20;;;;;;5067741;28;46634;-78
2024/01/27 08:24:30;;;;;;;19.27;9.13;;;1.40;66.10;;;;;;5068260;28;47526;-77
2024/01/27 08:26:58;;;;;;;13.60;8.10;;;1.50;66.00;;;;;;5060161;28;46816;-77
2024/01/27 08:29:23;;;;;;;22.73;8.80;;;1.70;66.00;;;;;;5068589;28;47269;-78
2024/01/27 08:31:49;;;;;;;27.60;8.40;;;1.80;66.20;;;;;;5066663;28;46549;-76
2024/01/27 08:34:14;;;;;;;16.27;7.53;;;1.90;65.80;;;;;;5048775;28;48248;-78
2024/01/27 08:36:40;;;;;;;17.33;6.83;;;2.00;65.70;;;;;;5066695;28;45835;-78
2024/01/27 08:39:09;;;;;;;12.23;6.03;;;2.20;65.80;;;;;;5047332;28;46766;-78
2024/01/27 08:41:34;;;;;;;12.73;5.65;;;2.30;65.70;;;;;;5048957;28;46291;-79
2024/01/27 08:44:00;;;;;;;14.57;5.97;;;2.40;65.60;;;;;;5068264;28;46118;-77
2024/01/27 08:46:25;;;;;;;12.40;5.30;;;2.50;65.50;;;;;;5052386;28;47406;-80
2024/01/27 08:48:51;;;;;;;19.17;5.13;;;2.60;65.50;;;;;;5068077;28;45911;-79
2024/01/27 08:51:17;;;;;;;12.23;5.60;;;2.70;65.60;;;;;;5067806;28;46719;-79
2024/01/27 08:53:50;;;;;;;12.55;4.88;;;2.80;65.50;;;;;;5068948;28;46517;-78
2024/01/27 08:56:17;;;;;;;12.10;4.60;;;2.90;65.40;;;;;;5068003;28;46711;-80
2024/01/27 08:58:43;;;;;;;14.77;4.05;;;3.00;65.50;;;;;;5066435;27;46671;-79
2024/01/27 09:01:12;;;;;;;13.50;4.40;;;3.10;66.70;;;;;;5067759;27;46611;-79
2024/01/27 09:03:39;;;;;;;9.13;3.80;;;3.20;65.60;;;;;;5065553;28;47414;-77
2024/01/27 09:06:05;;;;;;;7.88;3.72;;;3.30;65.80;;;;;;5052426;28;46550;-78
2024/01/27 09:08:30;;;;;;;11.60;3.43;;;3.40;65.60;;;;;;5066081;27;46513;-79
2024/01/27 09:10:56;;;;;;;16.80;3.90;;;3.40;65.40;;;;;;5069117;27;46289;-77
2024/01/27 09:13:21;;;;;;;9.20;3.30;;;3.50;65.70;;;;;;5069245;28;46588;-78
2024/01/27 09:15:48;;;;;;;10.03;3.80;;;3.60;65.80;;;;;;5068855;28;45832;-79
2024/01/27 09:18:14;;;;;;;7.97;4.18;;;3.60;65.80;;;;;;5070072;27;46545;-79
2024/01/27 09:20:40;;;;;;;9.30;3.47;;;3.70;65.80;;;;;;5069430;27;46680;-78
2024/01/27 09:23:06;;;;;;;11.40;3.83;;;3.80;65.60;;;;;;5072496;27;47432;-78
2024/01/27 09:25:31;;;;;;;12.77;3.50;;;3.90;65.60;;;;;;5062300;28;46936;-78
2024/01/27 09:28:00;;;;;;;14.40;4.17;;;4.00;65.40;;;;;;5065045;28;46676;-77
2024/01/27 09:30:26;;;;;;;8.93;3.77;;;4.00;65.40;;;;;;5068208;27;46629;-78
2024/01/27 09:32:51;;;;;;;12.13;3.60;;;4.00;65.30;;;;;;5056986;28;48526;-79
2024/01/27 09:35:17;;;;;;;12.70;3.40;;;4.20;65.50;;;;;;5068312;28;46580;-79
2024/01/27 09:37:44;;;;;;;11.40;3.70;;;4.20;65.10;;;;;;5066814;28;46428;-78
2024/01/27 09:40:10;;;;;;;11.43;3.80;;;4.30;64.90;;;;;;5067691;28;46313;-77
2024/01/27 09:42:41;;;;;;;10.53;3.27;;;4.40;64.80;;;;;;5054841;27;47543;-77
2024/01/27 09:45:09;;;;;;;8.40;2.93;;;4.50;64.80;;;;;;5068156;28;46375;-79
2024/01/27 09:47:36;;;;;;;5.70;2.65;;;4.50;64.70;;;;;;5067618;28;46434;-77
2024/01/27 09:50:01;;;;;;;10.93;2.77;;;4.50;64.50;;;;;;5067337;27;46348;-78
2024/01/27 09:52:27;;;;;;;11.60;2.83;;;4.50;64.40;;;;;;5067269;27;47291;-80
2024/01/27 09:54:53;;;;;;;12.60;3.00;;;4.50;64.50;;;;;;5067939;27;45973;-78
2024/01/27 09:57:20;;;;;;;7.20;2.53;;;4.70;64.40;;;;;;5068014;28;46432;-79
2024/01/27 09:59:47;;;;;;;8.97;2.77;;;4.70;64.20;;;;;;5069909;28;46754;-78
2024/01/27 10:02:15;;;;;;;4.70;2.57;;;4.70;63.90;;;;;;5063967;27;47806;-78
2024/01/27 10:04:41;;;;;;;6.63;2.10;;;4.80;64.00;;;;;;5049505;27;46528;-79
2024/01/27 10:07:07;;;;;;;11.57;2.57;;;4.80;64.00;;;;;;5069491;28;46441;-78
2024/01/27 10:09:33;;;;;;;7.83;2.93;;;4.80;63.80;;;;;;5069694;27;46541;-79
2024/01/27 10:12:01;;;;;;;10.20;3.20;;;4.90;63.60;;;;;;5067406;28;46740;-77
2024/01/27 10:14:38;;;;;;;8.27;3.00;;;4.90;63.60;;;;;;5061955;27;46959;-77
2024/01/27 10:17:04;;;;;;;11.57;3.53;;;4.90;63.50;;;;;;5050526;28;47133;-77
2024/01/27 10:19:30;;;;;;;5.43;2.50;;;5.00;63.50;;;;;;5067841;27;45913;-80
2024/01/27 10:22:04;;;;;;;16.80;3.17;;;5.00;63.30;;;;;;5069365;28;47173;-81
2024/01/27 10:24:32;;;;;;;8.53;3.07;;;5.10;63.00;;;;;;5066509;27;46675;-78
2024/01/27 10:27:01;;;;;;;8.77;2.90;;;5.20;62.80;;;;;;5070257;27;46531;-78
2024/01/27 10:29:27;;;;;;;15.40;3.20;;;5.30;62.30;;;;;;5061433;28;46436;-78
2024/01/27 10:31:53;;;;;;;7.03;3.20;;;5.30;61.30;;;;;;5077738;27;46255;-80
2024/01/27 10:34:22;;;;;;;7.80;4.00;;;5.30;61.30;;;;;;5059420;28;46214;-76
2024/01/27 10:36:47;;;;;;;16.83;5.33;;;5.40;62.70;;;;;;5079598;27;46984;-79
2024/01/27 10:39:20;;;;;;;9.60;2.70;;;5.40;61.40;;;;;;5077100;27;46738;-78
2024/01/27 10:41:48;;;;;;;10.27;3.03;;;5.30;61.30;;;;;;5075941;28;48278;-79
2024/01/27 10:44:15;;;;;;;6.50;2.87;;;5.30;61.30;;;;;;5057172;28;47718;-76
2024/01/27 10:46:46;;;;;;;5.50;2.30;;;5.30;61.10;;;;;;5076364;27;46487;-81
2024/01/27 10:49:22;;;;;;;7.10;3.30;;;5.40;60.20;;;;;;5077990;28;46502;-77
2024/01/27 10:51:58;;;;;;;15.50;3.90;;;5.50;59.50;;;;;;5077044;28;46254;-80
2024/01/27 10:54:27;;;;;;;9.20;3.50;;;5.60;59.20;;;;;;5077090;27;47696;-78
2024/01/27 10:56:56;;;;;;;8.90;3.17;;;5.70;58.60;;;;;;5078364;28;46741;-77
2024/01/27 10:59:22;;;;;;;9.07;2.77;;;5.80;58.20;;;;;;5077835;28;46408;-77
2024/01/27 11:01:52;;;;;;;10.33;3.90;;;5.80;58.00;;;;;;5079166;28;46522;-79
2024/01/27 11:04:20;;;;;;;7.23;3.00;;;6.00;58.00;;;;;;5051826;28;46359;-78
2024/01/27 11:06:48;;;;;;;9.50;3.10;;;6.20;57.40;;;;;;5052868;28;46909;-79
2024/01/27 11:09:14;;;;;;;10.80;3.70;;;6.20;57.10;;;;;;5051653;28;46448;-78
2024/01/27 11:11:42;;;;;;;13.23;3.50;;;6.20;56.60;;;;;;5067354;28;46476;-79
2024/01/27 11:14:09;;;;;;;14.33;3.50;;;6.10;56.10;;;;;;5063859;28;46772;-80
2024/01/27 11:16:35;;;;;;;13.33;3.50;;;6.10;55.90;;;;;;5069950;28;46456;-80
2024/01/27 11:19:01;;;;;;;11.73;3.60;;;6.10;56.00;;;;;;5071990;28;46455;-79
2024/01/27 11:21:26;;;;;;;11.67;3.63;;;6.20;55.80;;;;;;5068852;27;49731;-80
2024/01/27 11:23:52;;;;;;;9.57;3.50;;;6.30;55.70;;;;;;5063736;27;46554;-77
2024/01/27 11:26:22;;;;;;;6.67;2.50;;;6.40;55.00;;;;;;5065617;27;50489;-76
2024/01/27 11:28:49;;;;;;;9.37;3.20;;;6.40;54.60;;;;;;5066847;28;46689;-76
2024/01/27 11:31:19;;;;;;;13.77;3.83;;;6.40;54.30;;;;;;5068656;28;46593;-78
2024/01/27 11:33:48;;;;;;;10.00;3.40;;;6.40;53.80;;;;;;5063088;28;47022;-79
2024/01/27 11:36:22;;;;;;;15.57;3.80;;;6.30;53.40;;;;;;5065002;27;46414;-78
2024/01/27 11:38:48;;;;;;;12.73;4.83;;;6.30;54.70;;;;;;5067794;27;46450;-78
2024/01/27 11:41:22;;;;;;;8.83;3.10;;;6.30;53.50;;;;;;5066983;28;46474;-80
2024/01/27 11:43:52;;;;;;;13.30;4.00;;;6.30;53.20;;;;;;5062637;28;46856;-79
2024/01/27 11:46:18;;;;;;;12.67;3.70;;;6.30;53.20;;;;;;5051645;28;46506;-79
2024/01/27 11:48:45;;;;;;;8.07;3.53;;;6.40;52.80;;;;;;5068406;28;46577;-78
2024/01/27 11:51:12;;;;;;;12.83;3.13;;;6.50;52.60;;;;;;5056808;28;48194;-77
2024/01/27 11:53:38;;;;;;;9.87;5.57;;;6.50;52.30;;;;;;5047206;28;46478;-77
2024/01/27 11:56:04;;;;;;;7.57;3.20;;;6.50;52.20;;;;;;5067314;28;47053;-80
2024/01/27 11:58:30;;;;;;;23.90;13.20;;;6.60;51.90;;;;;;5064909;28;46436;-79
2024/01/27 12:00:58;;;;;;;19.83;7.80;;;6.60;51.50;;;;;;5066725;28;47464;-80
2024/01/27 12:03:24;;;;;;;12.80;5.33;;;6.70;51.00;;;;;;5041285;28;45975;-78
2024/01/27 12:05:49;;;;;;;10.07;3.00;;;6.60;50.80;;;;;;5055906;28;45877;-79
2024/01/27 12:08:17;;;;;;;12.17;4.70;;;6.50;50.60;;;;;;5063920;27;46820;-79
2024/01/27 12:10:43;;;;;;;10.00;3.07;;;6.50;50.70;;;;;;5064995;27;49164;-81
2024/01/27 12:13:09;;;;;;;14.13;3.10;;;6.40;50.80;;;;;;5062594;27;46245;-78
2024/01/27 12:15:34;;;;;;;9.57;3.17;;;6.30;50.80;;;;;;5068384;28;46622;-81
2024/01/27 12:18:00;;;;;;;7.27;3.50;;;6.40;50.80;;;;;;5066014;27;46577;-80
2024/01/27 12:20:26;;;;;;;10.33;2.83;;;6.40;50.20;;;;;;5061055;27;48197;-78
2024/01/27 12:23:05;;;;;;;5.23;2.50;;;6.50;49.60;;;;;;5042547;28;47022;-76
2024/01/27 12:25:31;;;;;;;10.93;3.33;;;6.40;49.50;;;;;;5066094;28;46700;-79
2024/01/27 12:28:00;;;;;;;8.70;2.50;;;6.40;49.50;;;;;;5065918;28;46460;-80
2024/01/27 12:30:26;;;;;;;8.30;2.80;;;6.40;49.50;;;;;;5066224;28;46548;-78
2024/01/27 12:32:52;;;;;;;5.53;2.60;;;6.40;49.60;;;;;;5058977;28;45922;-76
2024/01/27 12:35:18;;;;;;;7.00;3.73;;;6.40;49.30;;;;;;5065390;28;46631;-78
2024/01/27 12:37:43;;;;;;;7.73;3.83;;;6.40;48.70;;;;;;5064538;28;46756;-78
2024/01/27 12:40:21;;;;;;;6.87;2.90;;;6.40;48.10;;;;;;5073631;28;46445;-78
2024/01/27 12:42:47;;;;;;;11.97;3.90;;;6.40;47.40;;;;;;5062680;28;46775;-78
2024/01/27 12:45:13;;;;;;;15.07;3.43;;;6.40;47.50;;;;;;5067255;28;46579;-77
2024/01/27 12:47:39;;;;;;;10.73;4.10;;;6.50;47.40;;;;;;5068169;28;46646;-78